Latest Weather Observations for Geelong Racecourse

IDV60801

Issued at 4:22 pm EST Tuesday 26 May 2020 (issued every 10 minutes, with the page automatically refreshed every 10 minutes)

About weather observations | Map of weather stations | Latest weather observations for VIC | Other Formats
Station Details ID: 087184 Name: GEELONG RACECOURSE Lat: -38.17 Lon: 144.38 Height: 12.9 m
Data from the previous 72 hours. | See also: Recent months at Geelong Racecourse
Date/Time
EST
Temp
°C
App
Temp
°C
Dew
Point
°C
Rel
Hum
%
Delta-T
°C
Wind Press
QNH
hPa
Press
MSL
hPa
Rain since
9am
mm
Dir  Spd
km/h
Gust
km/h
Spd
kts
Gust
kts
26/04:00pm 14.6 15.0 12.6 88 1.1 E 2 2 1 1 1021.6 1021.6 0.0
26/03:30pm 14.1 14.2 12.8 92 0.7 ENE 4 6 2 3 1021.7 1021.7 0.0
26/03:00pm 13.2 12.7 12.1 93 0.6 ENE 6 7 3 4 1021.7 1021.7 0.0
26/02:30pm 12.8 12.6 11.7 93 0.6 NE 4 7 2 4 1022.0 1022.0 0.0
26/02:00pm 12.0 11.0 11.1 94 0.5 NE 7 11 4 6 1022.2 1022.2 0.0
26/01:30pm 11.1 10.1 10.2 94 0.5 NE 6 9 3 5 1022.7 1022.7 0.0
26/01:00pm 10.4 9.1 9.8 96 0.3 NNE 7 13 4 7 1023.1 1023.1 0.0
26/12:30pm 9.3 - - - - NE 7 11 4 6 1023.4 1023.4 0.0
26/12:00pm 8.4 - - - - NNE 9 13 5 7 1023.9 1023.9 0.0
26/11:30am 8.4 - - - - NNE 7 11 4 6 1024.3 1024.3 0.0
26/11:00am 8.5 - - - - NNE 9 13 5 7 1025.2 1025.2 0.0
26/10:30am 8.6 6.6 8.5 99 0.0 NE 9 15 5 8 1025.4 1025.4 0.0
26/10:00am 8.8 7.1 8.5 98 0.1 ENE 7 15 4 8 1025.8 1025.8 0.0
26/09:30am 9.0 7.4 8.7 98 0.1 NE 7 13 4 7 1025.8 1025.8 0.0
26/09:00am 8.9 7.8 8.6 98 0.1 NNE 4 7 2 4 1025.8 1025.8 0.0
26/08:30am 8.7 8.0 8.4 98 0.1 NW 2 4 1 2 1025.9 1025.9 0.0
26/08:00am 8.5 7.7 8.2 98 0.1 S 2 4 1 2 1025.9 1025.9 0.0
26/07:30am 8.7 8.0 8.4 98 0.1 SSW 2 6 1 3 1025.6 1025.6 0.0
26/07:00am 8.8 8.1 8.7 99 0.0 WSW 2 4 1 2 1025.7 1025.7 0.0
26/06:30am 8.8 8.5 8.8 100 0.0 CALM 0 4 0 2 1025.3 1025.3 0.0
26/06:00am 8.9 - - - - NNE 2 4 1 2 1024.7 1024.7 0.0
26/05:30am 9.2 - - - - NNE 2 2 1 1 1024.6 1024.6 0.0
26/05:00am 9.4 - - - - N 4 6 2 3 1024.9 1024.9 0.0
26/04:30am 9.3 - - - - N 6 7 3 4 1024.7 1024.7 0.0
26/04:00am 6.5 - - - - SE 2 4 1 2 1024.4 1024.4 0.0
26/03:30am 5.7 - - - - CALM 0 0 0 0 1024.5 1024.5 0.0
26/03:00am 5.4 4.4 5.4 100 0.0 CALM 0 0 0 0 1024.4 1024.4 0.0
26/02:30am 5.3 4.2 5.3 100 0.0 CALM 0 0 0 0 1024.7 1024.7 0.0
26/02:00am 6.5 4.9 6.5 100 0.0 SE 4 4 2 2 1024.9 1024.9 0.0
26/01:30am 6.8 5.3 6.8 100 0.0 SSE 4 6 2 3 1025.1 1025.1 0.0
26/01:00am 7.8 - - - - SE 6 9 3 5 1025.6 1025.6 0.0
26/12:30am 6.2 - - - - W 2 4 1 2 1026.0 1026.0 0.0
26/12:00am 6.2 - - - - CALM 0 0 0 0 1026.0 1026.0 0.0
 
Date/Time
EST
Temp
°C
App
Temp
°C
Dew
Point
°C
Rel
Hum
%
Delta-T
°C
Wind Press
QNH
hPa
Press
MSL
hPa
Rain since
9am
mm
Dir  Spd
km/h
Gust
km/h
Spd
kts
Gust
kts
25/11:30pm 6.2 4.9 6.2 100 0.0 WNW 2 4 1 2 1026.2 1026.2 0.0
25/11:00pm 6.4 4.8 6.4 100 0.0 WNW 4 6 2 3 1026.2 1026.2 0.0
25/10:30pm 6.6 5.8 6.5 99 0.0 CALM 0 0 0 0 1026.1 1026.1 0.0
25/10:00pm 6.4 5.1 6.1 98 0.1 S 2 4 1 2 1026.0 1026.0 0.0
25/09:30pm 7.1 6.4 6.8 98 0.1 CALM 0 0 0 0 1025.8 1025.8 0.0
25/09:00pm 7.4 6.7 6.8 96 0.3 CALM 0 2 0 1 1025.9 1025.9 0.0
25/08:30pm 9.2 8.1 8.6 96 0.3 SSE 4 6 2 3 1025.8 1025.8 0.0
25/08:00pm 9.3 8.3 8.7 96 0.3 SE 4 7 2 4 1025.6 1025.6 0.0
25/07:30pm 9.3 7.8 8.5 95 0.4 SE 6 9 3 5 1025.5 1025.5 0.0
25/07:00pm 9.0 7.4 8.2 95 0.4 SE 6 7 3 4 1025.6 1025.6 0.0
25/06:30pm 9.6 8.6 8.7 94 0.4 S 4 4 2 2 1025.6 1025.6 0.0
25/06:00pm 9.4 8.3 8.3 93 0.5 SSE 4 6 2 3 1025.4 1025.4 0.0
25/05:30pm 11.0 9.7 9.1 88 0.9 S 6 7 3 4 1025.0 1025.0 0.0
25/05:00pm 12.5 10.8 8.4 76 2.0 SE 7 13 4 7 1024.8 1024.8 0.0
25/04:30pm 13.4 11.2 8.0 70 2.7 SE 9 13 5 7 1024.7 1024.7 0.0
25/04:00pm 13.9 11.3 7.7 66 3.0 ESE 11 17 6 9 1024.7 1024.7 0.0
25/03:30pm 14.1 11.4 7.4 64 3.3 ESE 11 19 6 10 1025.0 1025.0 0.0
25/03:00pm 14.5 11.8 7.3 62 3.5 E 11 20 6 11 1024.8 1024.8 0.0
25/02:30pm 14.6 11.9 7.2 61 3.6 ESE 11 19 6 10 1025.0 1025.0 0.0
25/02:00pm 14.9 12.5 7.2 60 3.8 SE 9 15 5 8 1024.9 1024.9 0.0
25/01:30pm 14.9 11.9 7.7 62 3.6 E 13 22 7 12 1024.9 1024.9 0.0
25/01:00pm 14.4 11.0 7.5 63 3.4 ESE 15 22 8 12 1025.0 1025.0 0.0
25/12:30pm 14.4 11.9 8.1 66 3.1 E 11 22 6 12 1025.3 1025.3 0.0
25/12:00pm 14.4 10.6 7.7 64 3.3 ESE 17 24 9 13 1025.8 1025.8 0.0
25/11:30am 14.3 11.5 8.7 69 2.8 ESE 13 20 7 11 1026.1 1026.1 0.0
25/11:00am 13.8 10.7 8.8 72 2.5 SE 15 22 8 12 1026.6 1026.6 0.0
25/10:30am 13.4 10.5 9.6 78 1.9 SE 15 22 8 12 1026.8 1026.8 0.0
25/10:00am 12.4 11.1 11.3 93 0.6 SE 9 15 5 8 1026.6 1026.6 0.0
25/09:30am 10.8 9.6 10.2 96 0.3 ESE 7 11 4 6 1026.5 1026.5 0.0
25/09:00am 8.4 - - - - CALM 0 4 0 2 1026.9 1026.9 0.0
25/08:30am 6.7 - - - - CALM 0 0 0 0 1026.3 1026.3 0.0
25/08:00am 3.9 - - - - WNW 2 2 1 1 1026.1 1026.1 0.0
25/07:30am 3.7 - - - - CALM 0 0 0 0 1025.8 1025.8 0.0
25/07:00am 3.5 - - - - WNW 4 4 2 2 1025.5 1025.5 0.0
25/06:30am 4.3 - - - - WNW 2 2 1 1 1025.0 1025.0 0.0
25/06:00am 3.9 - - - - WNW 4 6 2 3 1025.1 1025.1 0.0
25/05:30am 3.9 - - - - WNW 4 6 2 3 1025.0 1025.0 0.0
25/05:00am 4.5 - - - - WNW 2 4 1 2 1025.5 1025.5 0.0
25/04:30am 4.2 2.5 4.2 100 0.0 WNW 2 4 1 2 1025.3 1025.3 0.0
25/04:00am 4.8 3.6 4.8 100 0.0 CALM 0 0 0 0 1025.3 1025.3 0.0
25/03:30am 5.3 4.2 5.3 100 0.0 CALM 0 0 0 0 1025.5 1025.5 0.0
25/03:00am 5.6 4.6 5.6 100 0.0 CALM 0 0 0 0 1025.4 1025.4 0.0
25/02:30am 6.0 4.7 5.9 99 0.0 WNW 2 6 1 3 1025.5 1025.5 0.0
25/02:00am 6.2 5.3 5.9 98 0.1 CALM 0 0 0 0 1025.4 1025.4 0.0
25/01:30am 6.8 6.0 6.5 98 0.1 CALM 0 0 0 0 1025.4 1025.4 0.0
25/01:00am 7.1 6.4 6.8 98 0.1 CALM 0 0 0 0 1025.4 1025.4 0.0
25/12:30am 7.5 6.9 7.2 98 0.1 CALM 0 0 0 0 1025.3 1025.3 0.0
25/12:00am 7.6 6.6 7.3 98 0.1 WNW 2 2 1 1 1025.4 1025.4 0.0
 
Date/Time
EST
Temp
°C
App
Temp
°C
Dew
Point
°C
Rel
Hum
%
Delta-T
°C
Wind Press
QNH
hPa
Press
MSL
hPa
Rain since
9am
mm
Dir  Spd
km/h
Gust
km/h
Spd
kts
Gust
kts
24/11:30pm 7.3 6.6 6.9 97 0.2 CALM 0 0 0 0 1025.3 1025.3 0.0
24/11:00pm 7.5 6.8 7.1 97 0.2 CALM 0 0 0 0 1025.2 1025.2 0.0
24/10:30pm 8.3 7.4 7.7 96 0.3 WNW 2 4 1 2 1025.0 1025.0 0.0
24/10:00pm 8.1 7.1 7.5 96 0.3 WNW 2 4 1 2 1025.0 1025.0 0.0
24/09:30pm 7.9 6.5 7.3 96 0.3 WNW 4 6 2 3 1024.9 1024.9 0.0
24/09:00pm 8.5 7.2 7.7 95 0.4 SSW 4 6 2 3 1024.6 1024.6 0.0
24/08:30pm 8.9 7.3 8.1 95 0.4 SSW 6 9 3 5 1024.4 1024.4 0.0
24/08:00pm 9.8 8.3 9.0 95 0.4 SSW 7 9 4 5 1024.4 1024.4 0.0
24/07:30pm 9.6 8.0 8.8 95 0.4 SW 7 9 4 5 1024.0 1024.0 0.0
24/07:00pm 9.1 8.0 8.3 95 0.4 WSW 4 7 2 4 1023.7 1023.7 0.0
24/06:30pm 9.0 7.4 8.1 94 0.4 WSW 6 7 3 4 1023.6 1023.6 0.0
24/06:00pm 9.7 8.1 8.6 93 0.5 SW 7 9 4 5 1023.6 1023.6 0.0
24/05:30pm 10.7 8.1 9.5 92 0.6 SSW 13 17 7 9 1023.4 1023.4 0.0
24/05:00pm 11.9 8.7 9.8 87 1.1 SSW 17 28 9 15 1023.3 1023.3 0.0
24/04:30pm 12.6 8.3 9.4 81 1.6 SSW 22 28 12 15 1023.2 1023.2 0.0
24/04:00pm 13.1 8.8 9.2 77 2.0 SSW 22 32 12 17 1023.1 1023.1 0.0
24/03:30pm 12.9 8.3 9.5 80 1.7 S 24 32 13 17 1023.0 1023.0 0.0
24/03:00pm 13.3 8.8 9.9 80 1.7 SSW 24 33 13 18 1022.7 1022.7 0.0
24/02:30pm 13.4 8.4 9.6 78 1.9 SSW 26 33 14 18 1022.7 1022.7 0.0
24/02:00pm 14.0 9.9 10.0 77 2.1 S 22 32 12 17 1022.7 1022.7 0.0
24/01:30pm 14.1 8.8 9.9 76 2.2 S 28 35 15 19 1022.6 1022.6 0.0
24/01:00pm 14.2 9.7 10.2 77 2.1 S 24 35 13 19 1022.6 1022.6 0.0
24/12:30pm 13.5 8.5 9.6 77 2.0 S 26 33 14 18 1022.7 1022.7 0.0
24/12:00pm 13.0 9.7 11.7 92 0.7 SSW 20 32 11 17 1022.9 1022.9 0.0
24/11:30am 13.1 9.1 11.8 92 0.7 SSW 24 30 13 16 1023.1 1023.1 0.0
24/11:00am 11.7 8.2 10.8 94 0.5 SSW 20 30 11 16 1023.4 1023.4 0.0
24/10:30am 11.6 7.7 10.7 94 0.5 S 22 35 12 19 1023.4 1023.4 0.0
24/10:00am 11.0 8.3 10.2 95 0.4 S 15 20 8 11 1023.1 1023.1 0.0
24/09:30am 11.2 7.6 10.4 95 0.4 SSW 20 32 11 17 1022.8 1022.8 0.0
24/09:00am 11.5 8.4 10.4 93 0.6 SSW 17 22 9 12 1022.6 1022.6 2.0
24/08:30am 11.4 8.1 9.7 89 0.9 SSW 17 24 9 13 1022.3 1022.3 2.0
24/08:00am 11.3 8.5 10.0 92 0.7 SSW 15 20 8 11 1022.2 1022.2 2.0
24/07:30am 11.3 8.5 10.0 92 0.7 SSW 15 20 8 11 1021.9 1021.9 2.0
24/07:00am 10.7 8.6 9.8 94 0.5 S 11 15 6 8 1021.5 1021.5 2.0
24/06:30am 10.7 7.1 9.8 94 0.5 S 19 24 10 13 1021.2 1021.2 1.8
24/06:00am 11.1 9.4 10.0 93 0.6 SSW 9 13 5 7 1020.9 1020.9 1.8
24/05:30am 11.4 7.9 10.1 92 0.7 SSW 19 32 10 17 1020.8 1020.8 1.8
24/05:00am 11.5 8.3 10.1 91 0.7 SW 17 22 9 12 1020.3 1020.3 1.8
24/04:30am 11.3 9.5 10.7 96 0.3 S 11 19 6 10 1020.3 1020.3 1.8
24/04:00am 11.0 8.3 10.4 96 0.3 S 15 20 8 11 1020.2 1020.2 1.8
24/03:30am 10.4 8.2 9.5 94 0.5 SSW 11 17 6 9 1020.1 1020.1 1.8
24/03:00am 11.3 8.6 10.2 93 0.6 SSW 15 30 8 16 1020.1 1020.1 1.8
24/02:30am 11.9 8.3 10.6 92 0.7 SSW 20 32 11 17 1020.2 1020.2 1.8
24/02:00am 11.8 8.4 10.7 93 0.6 SSW 19 30 10 16 1020.1 1020.1 1.8
24/01:30am 11.9 8.9 10.6 92 0.7 SSW 17 24 9 13 1020.1 1020.1 1.8
24/01:00am 11.8 7.9 9.5 86 1.2 SSW 20 26 11 14 1020.0 1020.0 1.8
24/12:30am 11.6 8.5 10.3 92 0.7 SSW 17 28 9 15 1020.0 1020.0 1.8
24/12:00am 11.6 8.5 10.3 92 0.7 SSW 17 24 9 13 1020.0 1020.0 1.8
 
Date/Time
EST
Temp
°C
App
Temp
°C
Dew
Point
°C
Rel
Hum
%
Delta-T
°C
Wind Press
QNH
hPa
Press
MSL
hPa
Rain since
9am
mm
Dir  Spd
km/h
Gust
km/h
Spd
kts
Gust
kts
23/11:30pm 11.7 7.3 10.4 92 0.7 SSW 24 37 13 20 1020.1 1020.1 1.8
23/11:00pm 11.6 8.2 10.5 93 0.6 SSW 19 28 10 15 1020.0 1020.0 1.8
23/10:30pm 11.4 8.8 10.6 95 0.4 SSW 15 20 8 11 1019.9 1019.9 1.8
23/10:00pm 11.2 7.6 10.6 96 0.3 SSW 20 28 11 15 1019.7 1019.7 1.8
23/09:30pm 11.6 9.2 11.3 98 0.2 SW 15 20 8 11 1019.5 1019.5 1.8
23/09:00pm 11.9 10.0 11.9 100 0.0 SSW 13 22 7 12 1019.3 1019.3 1.8
23/08:30pm 11.7 - - - - SSW 20 28 11 15 1019.1 1019.1 1.8
23/08:00pm 11.9 9.3 11.9 100 0.0 SSW 17 26 9 14 1019.0 1019.0 1.6
23/07:30pm 11.9 10.0 11.9 100 0.0 SW 13 20 7 11 1018.7 1018.7 1.4
23/07:00pm 12.3 9.7 12.0 98 0.2 SSW 17 24 9 13 1018.6 1018.6 1.2
23/06:30pm 12.4 10.1 11.8 96 0.3 SSW 15 20 8 11 1018.3 1018.3 0.8
23/06:00pm 12.4 9.4 11.8 96 0.3 SW 19 26 10 14 1017.8 1017.8 0.8
23/05:30pm 12.6 9.9 11.8 95 0.4 SSW 17 28 9 15 1017.6 1017.6 0.8
23/05:00pm 12.6 9.6 11.8 95 0.4 SSW 19 26 10 14 1017.5 1017.5 0.8
23/04:30pm 12.8 9.8 12.0 95 0.4 SSW 19 28 10 15 1017.5 1017.5 0.8

Other formats

Comma delimited format used in spreadsheet applications
http://www.bom.gov.au/fwo/IDV60801/IDV60801.94857.axf

JavaScript Object Notation format (JSON) in row-major order
http://www.bom.gov.au/fwo/IDV60801/IDV60801.94857.json

Data quality

Most of these data are generated automatically and are frequently updated. Quality checks on data are not normally performed. It is possible for incorrect values to appear. Refer to information at About Latest Weather Observations and please check the disclaimer before using these data.